createdAt,value
2022-12-16T00:02:13.189Z,32.72
2022-12-16T00:04:41.168Z,29.35
2022-12-16T00:07:10.462Z,26.73
2022-12-16T00:09:38.432Z,27.85
2022-12-16T00:12:06.850Z,27.23
2022-12-16T00:14:34.781Z,25.58
2022-12-16T00:17:02.802Z,28.52
2022-12-16T00:19:31.505Z,28.08
2022-12-16T00:21:59.486Z,28.42
2022-12-16T00:24:31.251Z,34.17
2022-12-16T00:26:59.211Z,27.88
2022-12-16T00:29:27.239Z,26.00
2022-12-16T00:31:55.230Z,31.48
2022-12-16T00:34:25.505Z,29.98
2022-12-16T00:36:53.474Z,35.13
2022-12-16T00:39:21.446Z,27.77
2022-12-16T00:41:50.860Z,28.55
2022-12-16T00:44:19.984Z,34.55
2022-12-16T00:46:48.228Z,20.13
2022-12-16T00:49:16.249Z,22.80
2022-12-16T00:51:44.332Z,27.10
2022-12-16T00:54:12.278Z,21.42
2022-12-16T00:56:40.250Z,32.83
2022-12-16T00:59:09.528Z,36.15
2022-12-16T01:01:37.528Z,32.05
2022-12-16T01:04:05.899Z,40.00
2022-12-16T01:06:33.845Z,35.08
2022-12-16T01:09:01.802Z,29.02
2022-12-16T01:11:29.740Z,34.65
2022-12-16T01:14:00.099Z,30.50
2022-12-16T01:16:29.490Z,31.80
2022-12-16T01:18:57.514Z,32.40
2022-12-16T01:21:25.828Z,29.52
2022-12-16T01:23:55.012Z,33.75
2022-12-16T01:26:23.429Z,40.40
2022-12-16T01:28:51.510Z,31.63
2022-12-16T01:31:22.097Z,33.78
2022-12-16T01:33:52.070Z,33.17
2022-12-16T01:36:20.061Z,25.70
2022-12-16T01:38:48.146Z,23.45
2022-12-16T01:41:17.930Z,29.77
2022-12-16T01:43:47.218Z,32.72
2022-12-16T01:46:21.375Z,30.92
2022-12-16T01:48:54.692Z,25.65
2022-12-16T01:51:27.562Z,39.63
2022-12-16T01:53:59.527Z,31.02
2022-12-16T01:56:31.150Z,26.45
2022-12-16T01:59:00.428Z,27.65
2022-12-16T02:01:28.949Z,32.00
2022-12-16T02:04:02.338Z,29.25
2022-12-16T02:06:31.091Z,24.30
2022-12-16T02:09:04.385Z,23.27
2022-12-16T02:11:46.984Z,29.77
2022-12-16T02:14:39.885Z,27.80
2022-12-16T02:17:14.130Z,27.80
2022-12-16T02:20:21.430Z,28.42
2022-12-16T02:23:12.314Z,27.77
2022-12-16T02:26:11.272Z,16.92
2022-12-16T02:28:57.080Z,24.83
2022-12-16T02:31:34.959Z,31.20
2022-12-16T02:34:14.785Z,24.35
2022-12-16T02:36:55.954Z,22.42
2022-12-16T02:39:29.488Z,31.13
2022-12-16T02:42:03.947Z,24.85
2022-12-16T02:44:46.850Z,31.70
2022-12-16T02:47:16.125Z,31.52
2022-12-16T02:49:52.482Z,21.25
2022-12-16T02:52:24.152Z,26.70
2022-12-16T02:54:56.642Z,26.23
2022-12-16T02:57:54.344Z,26.80
2022-12-16T03:00:25.713Z,28.25
2022-12-16T03:03:00.501Z,19.23
2022-12-16T03:05:32.891Z,21.48
2022-12-16T03:08:04.304Z,24.60
2022-12-16T03:10:45.330Z,19.60
2022-12-16T03:13:15.537Z,17.95
2022-12-16T03:15:45.877Z,24.63
2022-12-16T03:18:16.528Z,22.52
2022-12-16T03:20:48.268Z,19.15
2022-12-16T03:23:22.759Z,21.98
2022-12-16T03:25:55.541Z,22.35
2022-12-16T03:28:32.263Z,20.92
2022-12-16T03:31:05.716Z,22.63
2022-12-16T03:33:44.939Z,16.30
2022-12-16T03:36:19.287Z,18.58
2022-12-16T03:38:49.403Z,14.38
2022-12-16T03:41:19.365Z,18.02
2022-12-16T03:43:48.251Z,11.57
2022-12-16T03:46:17.649Z,16.05
2022-12-16T03:48:55.273Z,11.07
2022-12-16T03:51:23.213Z,15.38
2022-12-16T03:53:51.296Z,20.50
2022-12-16T03:56:19.266Z,17.27
2022-12-16T03:58:47.222Z,19.67
2022-12-16T04:01:15.562Z,16.63
2022-12-16T04:03:43.628Z,15.45
2022-12-16T04:06:12.935Z,11.57
2022-12-16T04:08:40.846Z,20.27
2022-12-16T04:11:27.166Z,16.25
2022-12-16T04:14:12.606Z,12.85
2022-12-16T04:16:58.343Z,17.38
2022-12-16T04:19:48.564Z,14.38
2022-12-16T04:22:38.247Z,15.20
2022-12-16T04:25:09.778Z,16.95
2022-12-16T04:27:37.931Z,17.52
2022-12-16T04:30:22.146Z,16.85
2022-12-16T04:33:10.342Z,15.30
2022-12-16T04:35:55.513Z,17.27
2022-12-16T04:38:43.712Z,16.15
2022-12-16T04:41:29.329Z,16.65
2022-12-16T04:44:14.882Z,13.35
2022-12-16T04:47:00.665Z,11.70
2022-12-16T04:49:46.118Z,14.18
2022-12-16T04:52:31.756Z,16.52
2022-12-16T04:55:18.805Z,20.65
2022-12-16T04:58:06.810Z,13.02
2022-12-16T05:00:52.287Z,15.30
2022-12-16T05:03:37.761Z,13.13
2022-12-16T05:06:23.667Z,11.48
2022-12-16T05:09:09.107Z,13.85
2022-12-16T05:11:55.803Z,10.20
2022-12-16T05:14:41.192Z,14.10
2022-12-16T05:17:26.679Z,13.38
2022-12-16T05:20:12.246Z,12.43
2022-12-16T05:22:57.773Z,12.48
2022-12-16T05:25:43.014Z,12.38
2022-12-16T05:28:30.199Z,17.50
2022-12-16T05:31:15.768Z,16.40
2022-12-16T05:34:01.567Z,16.83
2022-12-16T05:36:47.505Z,12.27
2022-12-16T05:39:32.872Z,16.60
2022-12-16T05:42:18.315Z,15.20
2022-12-16T05:45:05.076Z,15.25
2022-12-16T05:47:50.324Z,14.57
2022-12-16T05:50:35.978Z,14.38
2022-12-16T05:53:27.571Z,9.88
2022-12-16T05:56:13.531Z,9.73
2022-12-16T05:58:59.049Z,12.77
2022-12-16T06:01:46.564Z,11.25
2022-12-16T06:04:32.507Z,12.25
2022-12-16T06:07:18.127Z,10.68
2022-12-16T06:10:03.901Z,31.80
2022-12-16T06:12:49.280Z,38.45
2022-12-16T06:15:35.268Z,26.58
2022-12-16T06:18:21.939Z,16.85
2022-12-16T06:21:07.216Z,19.42
2022-12-16T06:23:52.722Z,15.50
2022-12-16T06:26:38.109Z,11.32
2022-12-16T06:29:23.593Z,13.88
2022-12-16T06:32:08.885Z,9.52
2022-12-16T06:34:55.674Z,6.20
2022-12-16T06:37:41.024Z,13.80
2022-12-16T06:40:27.936Z,9.38
2022-12-16T06:43:13.414Z,11.30
2022-12-16T06:45:59.338Z,10.70
2022-12-16T06:48:44.819Z,8.77
2022-12-16T06:51:31.629Z,11.65
2022-12-16T06:54:17.005Z,11.10
2022-12-16T06:57:01.734Z,8.57
2022-12-16T06:59:47.341Z,8.52
2022-12-16T07:02:49.910Z,13.60
2022-12-16T07:05:35.582Z,11.77
2022-12-16T07:08:22.574Z,8.45
2022-12-16T07:11:16.553Z,9.73
2022-12-16T07:14:02.962Z,10.70
2022-12-16T07:16:48.871Z,26.38
2022-12-16T07:19:35.065Z,15.88
2022-12-16T07:22:20.408Z,15.02
2022-12-16T07:25:07.100Z,9.65
2022-12-16T07:27:52.394Z,9.80
2022-12-16T07:30:37.733Z,9.40
2022-12-16T07:33:23.048Z,10.45
2022-12-16T07:36:08.394Z,7.63
2022-12-16T07:38:54.162Z,9.45
2022-12-16T07:41:40.724Z,9.38
2022-12-16T07:44:26.065Z,6.80
2022-12-16T07:47:11.566Z,12.48
2022-12-16T07:49:56.885Z,8.80
2022-12-16T07:52:42.237Z,6.93
2022-12-16T07:55:27.985Z,10.05
2022-12-16T07:58:29.080Z,9.30
2022-12-16T08:01:14.739Z,9.80
2022-12-16T08:04:00.465Z,16.80
2022-12-16T08:06:48.692Z,17.38
2022-12-16T08:09:36.401Z,11.65
2022-12-16T08:12:21.864Z,5.75
2022-12-16T08:15:08.462Z,13.40
2022-12-16T08:17:54.468Z,15.88
2022-12-16T08:20:40.803Z,20.13
2022-12-16T08:23:28.211Z,10.80
2022-12-16T08:26:15.914Z,13.70
2022-12-16T08:29:20.191Z,11.77
2022-12-16T08:32:08.475Z,11.23
2022-12-16T08:34:53.973Z,10.63
2022-12-16T08:37:39.350Z,11.98
2022-12-16T08:40:35.251Z,10.65
2022-12-16T08:43:21.299Z,9.60
2022-12-16T08:46:06.855Z,9.30
2022-12-16T08:48:53.880Z,11.43
2022-12-16T08:51:41.614Z,12.18
2022-12-16T08:54:27.508Z,9.45
2022-12-16T08:57:13.019Z,9.00
2022-12-16T08:59:58.465Z,12.68
2022-12-16T09:02:44.053Z,16.58
2022-12-16T09:05:31.272Z,10.75
2022-12-16T09:08:18.538Z,15.52
2022-12-16T09:11:04.645Z,14.98
2022-12-16T09:13:49.861Z,11.35
2022-12-16T09:16:35.222Z,18.98
2022-12-16T09:19:20.806Z,11.02
2022-12-16T09:22:07.970Z,11.05
2022-12-16T09:24:54.127Z,10.13
2022-12-16T09:27:41.463Z,12.38
2022-12-16T09:30:30.324Z,10.65
2022-12-16T09:33:15.839Z,7.68
2022-12-16T09:36:01.231Z,8.13
2022-12-16T09:38:49.236Z,9.63
2022-12-16T09:41:47.271Z,10.13
2022-12-16T09:44:41.880Z,12.65
2022-12-16T09:47:37.723Z,10.88
2022-12-16T09:50:24.079Z,12.45
2022-12-16T09:53:17.900Z,8.23
2022-12-16T09:56:05.088Z,10.85
2022-12-16T09:58:56.569Z,9.80
2022-12-16T10:01:44.834Z,7.68
2022-12-16T10:04:30.629Z,8.38
2022-12-16T10:07:19.827Z,8.88
2022-12-16T10:10:16.761Z,8.88
2022-12-16T10:13:11.232Z,6.57
2022-12-16T10:16:04.065Z,9.65
2022-12-16T10:19:09.832Z,9.55
2022-12-16T10:22:00.745Z,12.98
2022-12-16T10:24:56.687Z,8.75
2022-12-16T10:27:49.243Z,10.45
2022-12-16T10:30:36.092Z,8.60
2022-12-16T10:33:22.072Z,14.23
2022-12-16T10:36:11.086Z,13.23
2022-12-16T10:39:00.995Z,6.30
2022-12-16T10:41:52.854Z,10.05
2022-12-16T10:44:45.062Z,12.45
2022-12-16T10:47:31.775Z,12.40
2022-12-16T10:50:32.684Z,15.32
2022-12-16T10:53:20.718Z,9.57
2022-12-16T10:56:16.384Z,12.88
2022-12-16T10:59:05.487Z,17.48
2022-12-16T11:01:50.904Z,11.57
2022-12-16T11:04:55.661Z,13.13
2022-12-16T11:07:48.237Z,17.15
2022-12-16T11:10:45.566Z,17.63
2022-12-16T11:13:36.938Z,15.70
2022-12-16T11:16:32.507Z,14.43
2022-12-16T11:19:18.983Z,12.05
2022-12-16T11:22:05.976Z,16.42
2022-12-16T11:24:52.089Z,16.55
2022-12-16T11:27:42.401Z,17.70
2022-12-16T11:30:38.407Z,16.42
2022-12-16T11:33:31.566Z,18.17
2022-12-16T11:36:25.400Z,17.52
2022-12-16T11:39:12.642Z,13.93
2022-12-16T11:42:00.358Z,17.33
2022-12-16T11:44:52.049Z,27.15
2022-12-16T11:47:44.671Z,21.60
2022-12-16T11:50:34.348Z,24.17
2022-12-16T11:53:20.564Z,22.17
2022-12-16T11:56:16.043Z,18.30
2022-12-16T11:59:05.096Z,17.27
2022-12-16T12:01:57.896Z,12.80
2022-12-16T12:04:45.696Z,22.45
2022-12-16T12:07:45.661Z,21.15
2022-12-16T12:10:52.542Z,20.65
2022-12-16T12:14:13.196Z,16.23
2022-12-16T12:17:11.020Z,18.63
2022-12-16T12:20:08.785Z,18.73
2022-12-16T12:22:55.983Z,19.85
2022-12-16T12:25:48.021Z,22.98
2022-12-16T12:28:46.922Z,18.40
2022-12-16T12:31:50.497Z,22.60
2022-12-16T12:34:47.521Z,19.20
2022-12-16T12:37:39.895Z,18.45
2022-12-16T12:40:40.397Z,22.25
2022-12-16T12:43:42.455Z,17.10
2022-12-16T12:46:36.890Z,22.70
2022-12-16T12:49:36.717Z,19.55
2022-12-16T12:52:29.551Z,23.98
2022-12-16T12:55:22.654Z,24.98
2022-12-16T12:58:10.288Z,23.10
2022-12-16T13:01:01.739Z,23.85
2022-12-16T13:03:52.577Z,24.67
2022-12-16T13:06:39.385Z,19.13
2022-12-16T13:09:48.512Z,23.98
2022-12-16T13:12:52.796Z,26.08
2022-12-16T13:15:51.896Z,20.50
2022-12-16T13:18:42.976Z,20.20
2022-12-16T13:22:07.127Z,20.88
2022-12-16T13:25:03.565Z,21.77
2022-12-16T13:28:05.459Z,23.33
2022-12-16T13:30:52.674Z,29.20
2022-12-16T13:33:48.769Z,22.70
2022-12-16T13:36:37.118Z,20.02
2022-12-16T13:39:45.638Z,21.20
2022-12-16T13:43:06.360Z,23.33
2022-12-16T13:45:56.790Z,25.20
2022-12-16T13:48:49.827Z,20.90
2022-12-16T13:52:24.298Z,25.50
2022-12-16T13:55:25.148Z,22.58
2022-12-16T13:58:19.974Z,30.83
2022-12-16T14:01:15.612Z,28.08
2022-12-16T14:04:09.012Z,20.85
2022-12-16T14:06:59.629Z,27.25
2022-12-16T14:09:53.507Z,24.20
2022-12-16T14:13:06.652Z,31.45
2022-12-16T14:16:00.315Z,49.92
2022-12-16T14:18:56.960Z,23.73
2022-12-16T14:21:47.586Z,28.42
2022-12-16T14:24:42.167Z,27.95
2022-12-16T14:27:34.775Z,29.05
2022-12-16T14:30:32.895Z,26.80
2022-12-16T14:33:18.305Z,27.13
2022-12-16T14:36:10.679Z,26.27
2022-12-16T14:38:56.077Z,30.58
2022-12-16T14:41:43.464Z,32.00
2022-12-16T14:44:43.848Z,26.00
2022-12-16T14:47:35.803Z,32.80
2022-12-16T14:50:22.720Z,25.88
2022-12-16T14:53:08.038Z,26.83
2022-12-16T14:55:53.997Z,26.67
2022-12-16T14:58:41.927Z,27.27
2022-12-16T15:01:33.641Z,25.63
2022-12-16T15:04:25.206Z,27.90
2022-12-16T15:07:13.294Z,27.52
2022-12-16T15:10:02.689Z,25.63
2022-12-16T15:13:10.915Z,30.05
2022-12-16T15:16:07.649Z,20.88
2022-12-16T15:18:57.017Z,24.40
2022-12-16T15:21:44.497Z,24.77
2022-12-16T15:24:35.875Z,25.35
2022-12-16T15:27:42.517Z,26.88
2022-12-16T15:30:51.281Z,53.03
2022-12-16T15:33:38.825Z,42.63
2022-12-16T15:36:25.738Z,30.80
2022-12-16T15:39:12.342Z,26.42
2022-12-16T15:41:57.807Z,26.70
2022-12-16T15:44:46.225Z,37.05
2022-12-16T15:47:40.671Z,31.58
2022-12-16T15:50:31.702Z,31.35
2022-12-16T15:53:44.398Z,32.50
2022-12-16T15:56:41.985Z,37.38
2022-12-16T15:59:45.178Z,44.63
2022-12-16T16:02:36.446Z,53.53
2022-12-16T16:05:30.375Z,39.47
2022-12-16T16:08:15.782Z,39.45
2022-12-16T16:11:02.195Z,33.08
2022-12-16T16:13:48.980Z,35.40
2022-12-16T16:16:34.778Z,36.35
2022-12-16T16:19:20.220Z,33.97
2022-12-16T16:22:05.639Z,33.92
2022-12-16T16:24:50.925Z,30.75
2022-12-16T16:27:38.296Z,28.90
2022-12-16T16:30:29.366Z,29.25
2022-12-16T16:33:14.919Z,32.35
2022-12-16T16:36:00.255Z,35.03
2022-12-16T16:38:45.638Z,35.28
2022-12-16T16:41:33.946Z,32.83
2022-12-16T16:44:20.271Z,15.20
2022-12-16T16:47:07.250Z,27.00
2022-12-16T16:50:03.264Z,34.38
2022-12-16T16:52:49.726Z,36.60
2022-12-16T16:55:37.685Z,35.10
2022-12-16T16:58:28.581Z,43.72
2022-12-16T17:01:14.240Z,31.90
2022-12-16T17:04:04.887Z,40.55
2022-12-16T17:06:56.779Z,33.22
2022-12-16T17:09:42.175Z,39.17
2022-12-16T17:12:36.964Z,35.97
2022-12-16T17:15:33.843Z,35.50
2022-12-16T17:18:19.420Z,34.33
2022-12-16T17:21:06.484Z,48.10
2022-12-16T17:23:53.789Z,41.20
2022-12-16T17:26:39.722Z,41.67
2022-12-16T17:29:25.042Z,38.80
2022-12-16T17:32:10.532Z,41.95
2022-12-16T17:35:04.874Z,44.28
2022-12-16T17:37:59.108Z,37.05
2022-12-16T17:40:46.251Z,43.88
2022-12-16T17:43:32.551Z,44.65
2022-12-16T17:46:20.087Z,53.50
2022-12-16T17:49:10.413Z,45.42
2022-12-16T17:51:55.818Z,48.22
2022-12-16T17:54:42.623Z,42.55
2022-12-16T17:57:28.434Z,42.30
2022-12-16T18:00:14.703Z,48.60
2022-12-16T18:03:00.941Z,40.03
2022-12-16T18:05:55.861Z,23.67
2022-12-16T18:08:41.164Z,43.60
2022-12-16T18:11:28.218Z,48.13
2022-12-16T18:14:15.168Z,32.22
2022-12-16T18:17:00.593Z,46.38
2022-12-16T18:19:45.788Z,40.45
2022-12-16T18:22:34.137Z,45.65
2022-12-16T18:25:19.713Z,40.10
2022-12-16T18:28:06.494Z,40.15
2022-12-16T18:30:51.943Z,28.05
2022-12-16T18:33:37.517Z,39.70
2022-12-16T18:36:24.867Z,37.85
2022-12-16T18:39:06.760Z,39.42
2022-12-16T18:41:52.395Z,44.28
2022-12-16T18:45:00.857Z,33.58
2022-12-16T18:47:58.874Z,43.92
2022-12-16T18:50:44.885Z,23.42
2022-12-16T18:53:30.913Z,31.23
2022-12-16T18:56:21.451Z,37.70
2022-12-16T18:59:18.268Z,24.38
2022-12-16T19:02:05.792Z,33.15
2022-12-16T19:04:51.698Z,37.40
2022-12-16T19:07:37.247Z,33.83
2022-12-16T19:10:23.630Z,25.45
2022-12-16T19:13:16.728Z,35.40
2022-12-16T19:16:10.567Z,35.13
2022-12-16T19:18:57.366Z,28.00
2022-12-16T19:21:45.713Z,38.28
2022-12-16T19:24:36.506Z,19.88
2022-12-16T19:27:22.212Z,7.57
2022-12-16T19:30:07.614Z,22.38
2022-12-16T19:32:49.516Z,35.67
2022-12-16T19:35:36.720Z,34.30
2022-12-16T19:38:22.538Z,35.95
2022-12-16T19:41:09.844Z,44.83
2022-12-16T19:44:01.744Z,36.88
2022-12-16T19:46:51.593Z,35.50
2022-12-16T19:49:43.788Z,37.28
2022-12-16T19:52:31.320Z,25.85
2022-12-16T19:55:17.782Z,29.70
2022-12-16T19:58:06.191Z,26.65
2022-12-16T20:00:51.644Z,16.52
2022-12-16T20:03:38.475Z,38.20
2022-12-16T20:06:26.786Z,35.33
2022-12-16T20:09:17.425Z,29.90
2022-12-16T20:12:03.441Z,33.00
2022-12-16T20:14:49.326Z,40.53
2022-12-16T20:17:34.706Z,40.97
2022-12-16T20:20:20.111Z,33.15
2022-12-16T20:23:05.585Z,28.48
2022-12-16T20:26:03.661Z,32.22
2022-12-16T20:28:49.654Z,38.65
2022-12-16T20:31:35.374Z,22.95
2022-12-16T20:34:21.744Z,30.63
2022-12-16T20:37:07.223Z,33.00
2022-12-16T20:39:56.940Z,27.08
2022-12-16T20:42:46.608Z,27.58
2022-12-16T20:45:32.453Z,32.92
2022-12-16T20:48:18.321Z,37.70
2022-12-16T20:51:11.738Z,37.15
2022-12-16T20:53:58.402Z,33.25
2022-12-16T20:56:44.486Z,30.95
2022-12-16T20:59:31.243Z,34.50
2022-12-16T21:02:29.042Z,32.35
2022-12-16T21:05:25.401Z,22.77
2022-12-16T21:08:20.472Z,30.00
2022-12-16T21:11:14.569Z,33.97
2022-12-16T21:13:59.932Z,28.27
2022-12-16T21:16:46.865Z,37.85
2022-12-16T21:19:33.744Z,29.10
2022-12-16T21:22:19.733Z,15.40
2022-12-16T21:25:05.047Z,37.35
2022-12-16T21:27:51.039Z,36.72
2022-12-16T21:30:36.589Z,28.27
2022-12-16T21:33:23.337Z,33.10
2022-12-16T21:36:12.404Z,32.75
2022-12-16T21:38:57.964Z,33.25
2022-12-16T21:41:39.875Z,31.75
2022-12-16T21:44:25.753Z,27.15
2022-12-16T21:47:11.126Z,39.13
2022-12-16T21:49:57.900Z,33.75
2022-12-16T21:52:43.300Z,32.70
2022-12-16T21:55:28.589Z,41.50
2022-12-16T21:58:14.480Z,34.60
2022-12-16T22:01:00.896Z,32.80
2022-12-16T22:03:52.704Z,32.42
2022-12-16T22:06:44.224Z,34.78
2022-12-16T22:09:32.543Z,36.20
2022-12-16T22:12:17.949Z,37.85
2022-12-16T22:15:04.159Z,36.80
2022-12-16T22:17:57.539Z,34.85
2022-12-16T22:20:44.268Z,37.38
2022-12-16T22:23:31.416Z,41.60
2022-12-16T22:26:18.287Z,38.45
2022-12-16T22:29:05.121Z,34.60
2022-12-16T22:31:50.530Z,37.33
2022-12-16T22:34:36.337Z,46.33
2022-12-16T22:37:21.642Z,52.15
2022-12-16T22:40:08.335Z,43.50
2022-12-16T22:42:53.759Z,38.40
2022-12-16T22:45:42.196Z,50.15
2022-12-16T22:48:30.280Z,37.50
2022-12-16T22:51:15.547Z,42.20
2022-12-16T22:54:01.052Z,37.25
2022-12-16T22:56:47.843Z,43.20
2022-12-16T22:59:33.358Z,37.58
2022-12-16T23:02:18.632Z,40.97
2022-12-16T23:05:04.132Z,46.40
2022-12-16T23:07:49.610Z,49.85
2022-12-16T23:10:35.398Z,29.05
2022-12-16T23:13:22.136Z,35.22
2022-12-16T23:16:07.539Z,42.38
2022-12-16T23:18:56.632Z,37.85
2022-12-16T23:21:42.473Z,39.45
2022-12-16T23:24:28.990Z,32.45
2022-12-16T23:27:14.855Z,34.78
2022-12-16T23:30:01.523Z,38.03
2022-12-16T23:32:55.245Z,41.30
2022-12-16T23:35:42.221Z,35.33
2022-12-16T23:38:43.099Z,45.08
2022-12-16T23:41:28.481Z,44.20
2022-12-16T23:44:13.860Z,45.25
2022-12-16T23:47:00.846Z,32.92
2022-12-16T23:49:46.498Z,15.52
2022-12-16T23:52:31.992Z,27.92
2022-12-16T23:55:17.324Z,39.10
2022-12-16T23:58:02.785Z,39.53
